createdAt,value
2023-12-14T00:01:20.112Z,99957.81
2023-12-14T00:03:47.888Z,99959.84
2023-12-14T00:06:15.865Z,99961.50
2023-12-14T00:08:43.646Z,99968.72
2023-12-14T00:11:13.003Z,99972.44
2023-12-14T00:13:40.769Z,99982.34
2023-12-14T00:16:08.963Z,99977.94
2023-12-14T00:18:37.417Z,99993.41
2023-12-14T00:21:05.384Z,100001.47
2023-12-14T00:23:34.752Z,100002.44
2023-12-14T00:26:02.173Z,99991.03
2023-12-14T00:28:32.222Z,99995.69
2023-12-14T00:31:01.666Z,99994.00
2023-12-14T00:33:29.387Z,100002.25
2023-12-14T00:35:57.943Z,100013.84
2023-12-14T00:38:25.469Z,100023.75
2023-12-14T00:40:53.006Z,100014.00
2023-12-14T00:43:20.431Z,100022.91
2023-12-14T00:45:47.760Z,100016.84
2023-12-14T00:48:15.641Z,100018.50
2023-12-14T00:50:43.226Z,100014.97
2023-12-14T00:53:10.671Z,100011.63
2023-12-14T00:55:38.225Z,100017.00
2023-12-14T00:58:05.484Z,100018.84
2023-12-14T01:00:32.784Z,100020.69
2023-12-14T01:03:00.113Z,100013.59
2023-12-14T01:05:27.544Z,100025.19
2023-12-14T01:07:54.926Z,100023.50
2023-12-14T01:10:22.493Z,100020.84
2023-12-14T01:12:49.906Z,100027.03
2023-12-14T01:15:17.545Z,100029.91
2023-12-14T01:17:44.950Z,100034.25
2023-12-14T01:20:12.773Z,100047.69
2023-12-14T01:22:40.172Z,100042.50
2023-12-14T01:25:07.925Z,100047.69
2023-12-14T01:27:35.209Z,100042.50
2023-12-14T01:30:02.480Z,100040.66
2023-12-14T01:32:29.767Z,100048.72
2023-12-14T01:34:57.195Z,100055.94
2023-12-14T01:37:24.543Z,100059.47
2023-12-14T01:39:51.995Z,100068.53
2023-12-14T01:42:19.306Z,100066.81
2023-12-14T01:44:46.579Z,100083.81
2023-12-14T01:47:13.887Z,100090.16
2023-12-14T01:49:42.767Z,100091.00
2023-12-14T01:52:10.222Z,100087.47
2023-12-14T01:54:37.808Z,100088.31
2023-12-14T01:57:05.424Z,100087.47
2023-12-14T01:59:32.873Z,100090.16
2023-12-14T02:02:00.756Z,100097.25
2023-12-14T02:04:28.571Z,100094.69
2023-12-14T02:06:55.943Z,100100.91
2023-12-14T02:09:23.212Z,100098.22
2023-12-14T02:11:50.666Z,100094.69
2023-12-14T02:14:18.197Z,100093.00
2023-12-14T02:16:45.582Z,100073.19
2023-12-14T02:19:13.007Z,100077.06
2023-12-14T02:21:40.381Z,100086.78
2023-12-14T02:24:07.727Z,100085.94
2023-12-14T02:26:35.029Z,100087.63
2023-12-14T02:29:02.499Z,100089.47
2023-12-14T02:31:29.798Z,100099.38
2023-12-14T02:33:57.221Z,100100.22
2023-12-14T02:36:24.707Z,100092.31
2023-12-14T02:38:52.240Z,100085.13
2023-12-14T02:41:19.592Z,100084.25
2023-12-14T02:43:47.076Z,100085.25
2023-12-14T02:46:16.619Z,100087.09
2023-12-14T02:48:44.704Z,100094.16
2023-12-14T02:51:16.197Z,100095.16
2023-12-14T02:53:43.709Z,100094.31
2023-12-14T02:56:12.339Z,100098.97
2023-12-14T02:58:40.072Z,100102.38
2023-12-14T03:01:07.571Z,100102.53
2023-12-14T03:03:35.197Z,100096.16
2023-12-14T03:06:02.536Z,100105.22
2023-12-14T03:08:29.999Z,100098.00
2023-12-14T03:10:57.460Z,100100.69
2023-12-14T03:13:24.829Z,100098.97
2023-12-14T03:15:52.319Z,100105.22
2023-12-14T03:18:19.756Z,100105.06
2023-12-14T03:20:47.297Z,100102.53
2023-12-14T03:23:14.704Z,100099.84
2023-12-14T03:25:42.239Z,100103.50
2023-12-14T03:28:10.500Z,100105.22
2023-12-14T03:30:37.846Z,100100.81
2023-12-14T03:33:08.379Z,100108.75
2023-12-14T03:35:37.288Z,100103.50
2023-12-14T03:38:04.789Z,100103.50
2023-12-14T03:40:32.162Z,100108.88
2023-12-14T03:42:59.517Z,100108.88
2023-12-14T03:45:26.795Z,100116.09
2023-12-14T03:47:55.389Z,100124.16
2023-12-14T03:50:22.906Z,100118.78
2023-12-14T03:52:50.798Z,100124.16
2023-12-14T03:55:18.202Z,100121.47
2023-12-14T03:57:45.710Z,100125.00
2023-12-14T04:00:14.448Z,100141.13
2023-12-14T04:02:42.141Z,100143.97
2023-12-14T04:05:10.416Z,100146.66
2023-12-14T04:07:41.643Z,100153.88
2023-12-14T04:10:13.424Z,100156.41
2023-12-14T04:12:41.183Z,100167.31
2023-12-14T04:15:10.529Z,100165.47
2023-12-14T04:17:37.907Z,100161.94
2023-12-14T04:20:07.518Z,100163.78
2023-12-14T04:22:35.717Z,100168.31
2023-12-14T04:25:03.148Z,100167.44
2023-12-14T04:27:31.326Z,100174.53
2023-12-14T04:29:58.733Z,100179.06
2023-12-14T04:32:26.938Z,100183.56
2023-12-14T04:34:54.451Z,100191.50
2023-12-14T04:37:21.869Z,100186.25
2023-12-14T04:39:49.242Z,100191.63
2023-12-14T04:42:16.570Z,100192.63
2023-12-14T04:44:43.961Z,100190.94
2023-12-14T04:47:11.290Z,100194.47
2023-12-14T04:49:38.759Z,100191.78
2023-12-14T04:52:06.606Z,100187.41
2023-12-14T04:54:34.455Z,100185.56
2023-12-14T04:57:01.873Z,100184.72
2023-12-14T04:59:29.187Z,100183.03
2023-12-14T05:01:56.563Z,100190.94
2023-12-14T05:04:23.951Z,100200.84
2023-12-14T05:06:51.353Z,100201.69
2023-12-14T05:09:18.667Z,100200.00
2023-12-14T05:11:46.118Z,100215.13
2023-12-14T05:14:13.460Z,100215.97
2023-12-14T05:16:40.877Z,100212.44
2023-12-14T05:19:08.484Z,100221.34
2023-12-14T05:21:35.962Z,100219.66
2023-12-14T05:24:04.076Z,100230.25
2023-12-14T05:26:31.546Z,100230.09
2023-12-14T05:28:58.826Z,100226.53
2023-12-14T05:31:26.170Z,100232.91
2023-12-14T05:33:53.589Z,100231.06
2023-12-14T05:36:20.956Z,100241.69
2023-12-14T05:38:50.928Z,100245.34
2023-12-14T05:41:18.348Z,100242.66
2023-12-14T05:43:45.696Z,100242.66
2023-12-14T05:46:24.742Z,100244.38
2023-12-14T05:48:52.609Z,100254.28
2023-12-14T05:51:33.340Z,100259.50
2023-12-14T05:54:01.178Z,100265.88
2023-12-14T05:56:28.637Z,100274.91
2023-12-14T05:58:56.153Z,100282.97
2023-12-14T06:01:25.412Z,100291.03
2023-12-14T06:03:52.908Z,100283.97
2023-12-14T06:06:20.470Z,100289.34
2023-12-14T06:08:47.958Z,100283.97
2023-12-14T06:11:15.299Z,100297.56
2023-12-14T06:13:42.765Z,100303.78
2023-12-14T06:16:13.918Z,100309.16
2023-12-14T06:18:44.763Z,100316.38
2023-12-14T06:21:12.841Z,100316.50
2023-12-14T06:23:40.449Z,100317.38
2023-12-14T06:26:08.104Z,100318.34
2023-12-14T06:28:35.480Z,100321.88
2023-12-14T06:31:02.992Z,100331.78
2023-12-14T06:33:30.628Z,100329.09
2023-12-14T06:35:58.865Z,100338.97
2023-12-14T06:38:26.189Z,100343.34
2023-12-14T06:40:53.488Z,100338.13
2023-12-14T06:43:20.824Z,100347.03
2023-12-14T06:45:48.144Z,100348.03
2023-12-14T06:48:15.650Z,100350.72
2023-12-14T06:50:44.183Z,100353.41
2023-12-14T06:53:12.712Z,100357.78
2023-12-14T06:55:40.053Z,100361.47
2023-12-14T06:58:12.277Z,100364.16
2023-12-14T07:00:39.779Z,100373.06
2023-12-14T07:03:07.226Z,100378.44
2023-12-14T07:05:34.782Z,100383.97
2023-12-14T07:08:02.265Z,100376.59
2023-12-14T07:10:29.636Z,100386.50
2023-12-14T07:12:57.080Z,100383.81
2023-12-14T07:15:24.952Z,100395.41
2023-12-14T07:17:52.366Z,100394.56
2023-12-14T07:20:19.778Z,100403.47
2023-12-14T07:22:47.156Z,100396.41
2023-12-14T07:25:14.597Z,100401.78
2023-12-14T07:27:43.177Z,100410.66
2023-12-14T07:30:12.246Z,100415.19
2023-12-14T07:32:40.312Z,100416.88
2023-12-14T07:35:08.262Z,100424.09
2023-12-14T07:37:36.268Z,100426.78
2023-12-14T07:40:05.119Z,100424.94
2023-12-14T07:42:33.275Z,100431.31
2023-12-14T07:45:00.905Z,100431.31
2023-12-14T07:47:28.543Z,100436.69
2023-12-14T07:49:55.939Z,100434.84
2023-12-14T07:52:23.327Z,100436.69
2023-12-14T07:54:50.603Z,100442.06
2023-12-14T07:57:18.559Z,100450.13
2023-12-14T07:59:47.525Z,100462.72
2023-12-14T08:02:15.002Z,100463.56
2023-12-14T08:04:42.488Z,100467.94
2023-12-14T08:07:09.852Z,100470.34
2023-12-14T08:09:37.198Z,100469.22
2023-12-14T08:12:04.892Z,100471.91
2023-12-14T08:14:35.160Z,100478.25
2023-12-14T08:17:02.900Z,100483.50
2023-12-14T08:19:30.474Z,100481.50
2023-12-14T08:21:57.848Z,100489.28
2023-12-14T08:24:25.106Z,100494.34
2023-12-14T08:26:52.549Z,100499.41
2023-12-14T08:29:20.030Z,100500.28
2023-12-14T08:31:47.608Z,100505.66
2023-12-14T08:34:15.876Z,100505.34
2023-12-14T08:36:43.382Z,100511.56
2023-12-14T08:39:10.762Z,100514.13
2023-12-14T08:41:38.042Z,100516.81
2023-12-14T08:44:05.327Z,100524.88
2023-12-14T08:46:43.206Z,100517.66
2023-12-14T08:49:11.731Z,100526.56
2023-12-14T08:51:39.342Z,100520.34
2023-12-14T08:54:07.420Z,100519.63
2023-12-14T08:56:34.780Z,100518.78
2023-12-14T08:59:05.047Z,100517.09
2023-12-14T09:01:32.580Z,100522.63
2023-12-14T09:04:00.073Z,100537.91
2023-12-14T09:06:27.552Z,100544.13
2023-12-14T09:08:54.907Z,100554.03
2023-12-14T09:11:22.360Z,100556.72
2023-12-14T09:13:49.877Z,100563.91
2023-12-14T09:16:17.196Z,100570.28
2023-12-14T09:18:44.655Z,100573.97
2023-12-14T09:21:12.102Z,100581.88
2023-12-14T09:23:39.433Z,100591.78
2023-12-14T09:26:06.914Z,100584.56
2023-12-14T09:28:34.384Z,100586.56
2023-12-14T09:31:01.949Z,100580.34
2023-12-14T09:33:29.936Z,100592.78
2023-12-14T09:35:58.146Z,100589.38
2023-12-14T09:38:25.909Z,100608.19
2023-12-14T09:40:53.371Z,100603.53
2023-12-14T09:43:22.073Z,100609.75
2023-12-14T09:45:51.165Z,100610.47
2023-12-14T09:48:18.789Z,100605.78
2023-12-14T09:50:47.785Z,100620.78
2023-12-14T09:53:15.142Z,100620.78
2023-12-14T09:55:42.523Z,100617.94
2023-12-14T09:58:12.115Z,100627.69
2023-12-14T10:00:42.795Z,100623.06
2023-12-14T10:03:19.110Z,100627.59
2023-12-14T10:05:48.211Z,100623.91
2023-12-14T10:08:19.592Z,100631.81
2023-12-14T10:10:53.722Z,100635.34
2023-12-14T10:13:23.062Z,100636.06
2023-12-14T10:15:51.074Z,100647.66
2023-12-14T10:18:27.119Z,100647.50
2023-12-14T10:20:54.632Z,100642.13
2023-12-14T10:23:22.377Z,100643.84
2023-12-14T10:25:51.784Z,100635.78
2023-12-14T10:28:19.382Z,100646.38
2023-12-14T10:30:47.038Z,100642.69
2023-12-14T10:33:17.409Z,100640.88
2023-12-14T10:35:47.244Z,100639.88
2023-12-14T10:38:18.700Z,100645.25
2023-12-14T10:40:47.600Z,100642.56
2023-12-14T10:43:36.155Z,100648.78
2023-12-14T10:46:10.813Z,100650.63
2023-12-14T10:48:42.694Z,100660.38
2023-12-14T10:51:12.650Z,100655.00
2023-12-14T10:53:40.360Z,100662.22
2023-12-14T10:56:11.953Z,100666.59
2023-12-14T10:58:56.899Z,100663.91
2023-12-14T11:01:25.388Z,100655.84
2023-12-14T11:03:57.890Z,100654.00
2023-12-14T11:06:34.666Z,100657.53
2023-12-14T11:09:15.176Z,100665.59
2023-12-14T11:11:54.779Z,100664.75
2023-12-14T11:14:24.149Z,100659.38
2023-12-14T11:16:55.551Z,100661.94
2023-12-14T11:19:23.024Z,100662.06
2023-12-14T11:22:11.130Z,100667.44
2023-12-14T11:24:38.825Z,100679.06
2023-12-14T11:27:07.901Z,100680.78
2023-12-14T11:29:37.862Z,100685.31
2023-12-14T11:32:07.967Z,100677.50
2023-12-14T11:34:35.379Z,100676.78
2023-12-14T11:37:02.890Z,100673.97
2023-12-14T11:39:33.115Z,100671.28
2023-12-14T11:42:05.355Z,100679.47
2023-12-14T11:44:32.716Z,100684.00
2023-12-14T11:47:00.299Z,100689.28
2023-12-14T11:49:28.317Z,100683.88
2023-12-14T11:51:57.315Z,100685.59
2023-12-14T11:54:24.897Z,100680.91
2023-12-14T11:56:52.364Z,100688.28
2023-12-14T11:59:20.695Z,100682.75
2023-12-14T12:02:01.624Z,100679.34
2023-12-14T12:04:29.516Z,100674.09
2023-12-14T12:07:17.952Z,100676.09
2023-12-14T12:09:45.754Z,100676.09
2023-12-14T12:12:14.196Z,100679.63
2023-12-14T12:14:43.137Z,100686.69
2023-12-14T12:17:11.106Z,100690.22
2023-12-14T12:19:39.169Z,100682.91
2023-12-14T12:22:06.586Z,100684.59
2023-12-14T12:24:34.808Z,100675.81
2023-12-14T12:27:02.683Z,100675.09
2023-12-14T12:29:30.073Z,100679.47
2023-12-14T12:31:57.779Z,100678.63
2023-12-14T12:34:25.167Z,100681.47
2023-12-14T12:36:52.574Z,100684.44
2023-12-14T12:39:19.864Z,100684.72
2023-12-14T12:41:47.209Z,100682.03
2023-12-14T12:44:14.475Z,100676.81
2023-12-14T12:46:42.388Z,100683.19
2023-12-14T12:49:09.987Z,100690.38
2023-12-14T12:51:37.319Z,100694.88
2023-12-14T12:54:12.416Z,100692.34
2023-12-14T12:56:41.325Z,100690.50
2023-12-14T12:59:10.167Z,100693.19
2023-12-14T13:01:38.367Z,100693.63
2023-12-14T13:04:18.439Z,100686.41
2023-12-14T13:06:45.760Z,100686.00
2023-12-14T13:09:13.377Z,100691.94
2023-12-14T13:11:40.989Z,100687.13
2023-12-14T13:14:09.044Z,100697.72
2023-12-14T13:16:37.278Z,100697.34
2023-12-14T13:19:05.127Z,100699.03
2023-12-14T13:21:32.573Z,100699.72
2023-12-14T13:23:59.905Z,100697.88
2023-12-14T13:26:27.365Z,100702.28
2023-12-14T13:28:55.477Z,100710.19
2023-12-14T13:31:23.033Z,100703.13
2023-12-14T13:33:54.523Z,100711.19
2023-12-14T13:36:21.854Z,100715.56
2023-12-14T13:38:49.162Z,100716.41
2023-12-14T13:41:16.603Z,100717.25
2023-12-14T13:43:45.137Z,100725.31
2023-12-14T13:46:19.705Z,100727.03
2023-12-14T13:48:49.430Z,100730.59
2023-12-14T13:51:16.829Z,100731.16
2023-12-14T13:53:44.927Z,100736.53
2023-12-14T13:56:12.323Z,100740.19
2023-12-14T13:58:39.903Z,100740.06
2023-12-14T14:01:10.364Z,100742.75
2023-12-14T14:03:40.875Z,100750.94
2023-12-14T14:06:08.712Z,100758.16
2023-12-14T14:08:36.705Z,100763.41
2023-12-14T14:11:04.444Z,100762.69
2023-12-14T14:13:33.222Z,100760.72
2023-12-14T14:16:00.725Z,100766.94
2023-12-14T14:18:28.193Z,100768.66
2023-12-14T14:20:56.002Z,100773.19
2023-12-14T14:23:23.499Z,100792.00
2023-12-14T14:25:55.179Z,100802.59
2023-12-14T14:28:25.659Z,100800.91
2023-12-14T14:30:53.844Z,100799.91
2023-12-14T14:33:21.444Z,100799.06
2023-12-14T14:35:50.201Z,100798.91
2023-12-14T14:38:19.827Z,100799.91
2023-12-14T14:40:47.297Z,100801.59
2023-12-14T14:43:15.318Z,100810.53
2023-12-14T14:45:43.674Z,100811.50
2023-12-14T14:48:11.334Z,100815.03
2023-12-14T14:50:39.100Z,100811.50
2023-12-14T14:53:06.706Z,100819.47
2023-12-14T14:55:34.519Z,100821.31
2023-12-14T14:58:01.835Z,100831.06
2023-12-14T15:00:29.315Z,100838.28
2023-12-14T15:02:56.902Z,100832.91
2023-12-14T15:05:24.309Z,100831.91
2023-12-14T15:07:51.794Z,100840.81
2023-12-14T15:10:19.159Z,100834.44
2023-12-14T15:12:46.463Z,100844.34
2023-12-14T15:15:13.891Z,100848.88
2023-12-14T15:17:41.388Z,100848.03
2023-12-14T15:20:09.269Z,100850.72
2023-12-14T15:22:36.923Z,100860.63
2023-12-14T15:25:05.484Z,100865.03
2023-12-14T15:27:34.026Z,100879.31
2023-12-14T15:30:01.698Z,100884.84
2023-12-14T15:32:29.076Z,100891.91
2023-12-14T15:34:56.480Z,100891.06
2023-12-14T15:37:23.748Z,100899.97
2023-12-14T15:39:51.056Z,100891.06
2023-12-14T15:42:18.465Z,100905.34
2023-12-14T15:44:45.916Z,100906.34
2023-12-14T15:47:14.195Z,100908.19
2023-12-14T15:49:46.340Z,100910.16
2023-12-14T15:52:13.857Z,100908.31
2023-12-14T15:54:41.378Z,100920.91
2023-12-14T15:57:08.771Z,100922.75
2023-12-14T15:59:36.102Z,100926.56
2023-12-14T16:02:03.993Z,100926.56
2023-12-14T16:04:31.317Z,100920.22
2023-12-14T16:06:59.713Z,100931.81
2023-12-14T16:09:27.039Z,100929.97
2023-12-14T16:11:54.306Z,100946.09
2023-12-14T16:14:21.655Z,100945.97
2023-12-14T16:16:49.037Z,100956.72
2023-12-14T16:19:16.674Z,100947.81
2023-12-14T16:21:44.039Z,100951.34
2023-12-14T16:24:11.507Z,100954.88
2023-12-14T16:26:42.695Z,100963.94
2023-12-14T16:29:10.347Z,100966.50
2023-12-14T16:31:43.838Z,100967.47
2023-12-14T16:34:11.433Z,100967.47
2023-12-14T16:36:39.019Z,100972.84
2023-12-14T16:39:07.705Z,100966.63
2023-12-14T16:41:34.971Z,100977.38
2023-12-14T16:44:02.335Z,100985.44
2023-12-14T16:46:29.622Z,100991.81
2023-12-14T16:48:57.014Z,100989.97
2023-12-14T16:51:26.097Z,100999.03
2023-12-14T16:53:53.438Z,101000.88
2023-12-14T16:56:20.794Z,101006.25
2023-12-14T16:58:48.235Z,101008.09
2023-12-14T17:01:16.466Z,101024.22
2023-12-14T17:03:43.767Z,101029.59
2023-12-14T17:06:14.641Z,101043.06
2023-12-14T17:08:42.070Z,101040.38
2023-12-14T17:11:10.834Z,101039.50
2023-12-14T17:13:38.607Z,101042.19
2023-12-14T17:16:16.549Z,101036.78
2023-12-14T17:18:44.931Z,101048.53
2023-12-14T17:21:27.084Z,101055.75
2023-12-14T17:23:55.670Z,101063.84
2023-12-14T17:26:26.816Z,101069.22
2023-12-14T17:28:57.205Z,101070.06
2023-12-14T17:31:25.961Z,101071.91
2023-12-14T17:33:54.460Z,101073.59
2023-12-14T17:36:21.963Z,101080.22
2023-12-14T17:38:51.328Z,101092.97
2023-12-14T17:41:19.101Z,101093.06
2023-12-14T17:43:46.690Z,101102.28
2023-12-14T17:46:22.100Z,101106.91
2023-12-14T17:48:49.707Z,101109.75
2023-12-14T17:51:17.238Z,101117.81
2023-12-14T17:53:44.803Z,101122.09
2023-12-14T17:56:12.853Z,101123.63
2023-12-14T17:58:42.164Z,101121.78
2023-12-14T18:01:09.631Z,101135.13
2023-12-14T18:03:37.228Z,101129.63
2023-12-14T18:06:05.157Z,101139.38
2023-12-14T18:08:32.657Z,101138.53
2023-12-14T18:11:00.260Z,101149.28
2023-12-14T18:13:28.149Z,101164.41
2023-12-14T18:15:55.943Z,101155.50
2023-12-14T18:18:23.759Z,101162.63
2023-12-14T18:20:51.681Z,101160.88
2023-12-14T18:23:19.514Z,101159.94
2023-12-14T18:25:49.173Z,101159.03
2023-12-14T18:28:19.197Z,101170.69
2023-12-14T18:30:47.676Z,101170.09
2023-12-14T18:33:15.489Z,101183.63
2023-12-14T18:35:43.706Z,101180.94
2023-12-14T18:38:11.341Z,101191.59
2023-12-14T18:40:38.708Z,101197.81
2023-12-14T18:43:06.231Z,101211.97
2023-12-14T18:45:34.020Z,101210.28
2023-12-14T18:48:01.482Z,101213.94
2023-12-14T18:50:28.948Z,101213.81
2023-12-14T18:52:58.874Z,101214.66
2023-12-14T18:55:26.530Z,101227.16
2023-12-14T18:57:55.319Z,101231.78
2023-12-14T19:00:22.823Z,101229.09
2023-12-14T19:02:50.117Z,101234.63
2023-12-14T19:05:21.948Z,101231.78
2023-12-14T19:07:49.444Z,101231.78
2023-12-14T19:10:17.426Z,101239.84
2023-12-14T19:12:44.872Z,101246.06
2023-12-14T19:15:12.269Z,101253.16
2023-12-14T19:17:41.621Z,101249.63
2023-12-14T19:20:11.726Z,101265.75
2023-12-14T19:22:42.111Z,101259.53
2023-12-14T19:25:11.802Z,101262.59
2023-12-14T19:27:40.218Z,101267.97
2023-12-14T19:30:10.349Z,101266.13
2023-12-14T19:32:38.026Z,101271.41
2023-12-14T19:35:06.147Z,101269.69
2023-12-14T19:37:34.084Z,101289.25
2023-12-14T19:40:03.896Z,101301.69
2023-12-14T19:42:34.097Z,101307.81
2023-12-14T19:45:01.718Z,101305.13
2023-12-14T19:47:29.163Z,101300.69
2023-12-14T19:50:01.004Z,101297.41
2023-12-14T19:52:31.743Z,101301.09
2023-12-14T19:55:00.469Z,101298.28
2023-12-14T19:57:30.488Z,101312.44
2023-12-14T19:59:58.001Z,101311.47
2023-12-14T20:02:30.475Z,101324.78
2023-12-14T20:04:59.048Z,101323.81
2023-12-14T20:07:30.965Z,101327.34
2023-12-14T20:10:05.221Z,101323.66
2023-12-14T20:12:35.888Z,101327.22
2023-12-14T20:15:06.774Z,101331.63
2023-12-14T20:17:42.620Z,101342.25
2023-12-14T20:20:17.962Z,101360.09
2023-12-14T20:22:47.727Z,101358.38
2023-12-14T20:25:17.256Z,101364.00
2023-12-14T20:27:46.718Z,101361.59
2023-12-14T20:30:21.064Z,101365.38
2023-12-14T20:32:52.716Z,101373.56
2023-12-14T20:35:24.852Z,101380.91
2023-12-14T20:37:53.101Z,101373.81
2023-12-14T20:40:24.478Z,101373.94
2023-12-14T20:42:54.082Z,101374.91
2023-12-14T20:45:21.537Z,101369.53
2023-12-14T20:47:50.347Z,101373.22
2023-12-14T20:50:18.726Z,101373.31
2023-12-14T20:52:48.183Z,101377.84
2023-12-14T20:55:16.735Z,101393.03
2023-12-14T20:57:44.650Z,101390.31
2023-12-14T21:00:12.329Z,101392.13
2023-12-14T21:02:40.936Z,101388.72
2023-12-14T21:05:08.997Z,101400.34
2023-12-14T21:07:37.118Z,101390.66
2023-12-14T21:10:04.873Z,101388.97
2023-12-14T21:12:32.182Z,101384.44
2023-12-14T21:14:59.608Z,101395.19
2023-12-14T21:17:27.072Z,101413.31
2023-12-14T21:19:54.693Z,101416.84
2023-12-14T21:22:22.182Z,101420.25
2023-12-14T21:24:50.639Z,101429.78
2023-12-14T21:27:36.752Z,101425.16
2023-12-14T21:30:04.720Z,101426.75
2023-12-14T21:32:32.115Z,101417.69
2023-12-14T21:34:59.559Z,101433.69
2023-12-14T21:37:27.046Z,101435.28
2023-12-14T21:39:54.398Z,101444.94
2023-12-14T21:42:22.026Z,101448.34
2023-12-14T21:44:49.429Z,101448.13
2023-12-14T21:47:16.876Z,101447.25
2023-12-14T21:49:44.178Z,101453.34
2023-12-14T21:52:11.556Z,101445.44
2023-12-14T21:54:38.838Z,101456.19
2023-12-14T21:57:06.230Z,101467.78
2023-12-14T21:59:33.836Z,101469.38
2023-12-14T22:02:01.222Z,101476.56
2023-12-14T22:04:28.805Z,101488.22
2023-12-14T22:06:57.986Z,101490.03
2023-12-14T22:09:25.274Z,101489.16
2023-12-14T22:11:52.565Z,101485.75
2023-12-14T22:14:19.975Z,101491.25
2023-12-14T22:16:50.979Z,101495.66
2023-12-14T22:19:18.954Z,101495.66
2023-12-14T22:21:46.467Z,101507.28
2023-12-14T22:24:13.812Z,101499.31
2023-12-14T22:26:41.150Z,101509.97
2023-12-14T22:29:08.570Z,101504.59
2023-12-14T22:31:35.961Z,101509.13
2023-12-14T22:34:03.276Z,101508.25
2023-12-14T22:36:30.583Z,101507.38
2023-12-14T22:38:57.872Z,101502.13
2023-12-14T22:41:25.215Z,101512.03
2023-12-14T22:43:52.569Z,101512.19
2023-12-14T22:46:19.989Z,101505.81
2023-12-14T22:48:47.636Z,101507.50
2023-12-14T22:51:19.108Z,101511.06
2023-12-14T22:53:47.150Z,101523.50
2023-12-14T22:56:25.459Z,101527.31
2023-12-14T22:58:53.096Z,101532.94
2023-12-14T23:01:31.939Z,101527.69
2023-12-14T23:04:00.561Z,101525.84
2023-12-14T23:06:28.026Z,101529.53
2023-12-14T23:08:55.650Z,101534.91
2023-12-14T23:11:23.194Z,101535.13
2023-12-14T23:13:50.890Z,101532.69
2023-12-14T23:16:18.438Z,101541.00
2023-12-14T23:18:45.997Z,101535.75
2023-12-14T23:21:13.572Z,101546.59
2023-12-14T23:23:40.962Z,101543.19
2023-12-14T23:26:08.481Z,101541.47
2023-12-14T23:28:35.933Z,101539.88
2023-12-14T23:31:03.613Z,101549.78
2023-12-14T23:33:31.085Z,101555.28
2023-12-14T23:35:58.381Z,101561.50
2023-12-14T23:38:25.978Z,101567.00
2023-12-14T23:40:53.583Z,101566.13
2023-12-14T23:43:20.962Z,101574.19
2023-12-14T23:45:48.317Z,101571.66
2023-12-14T23:48:15.815Z,101568.97
2023-12-14T23:50:43.236Z,101569.94
2023-12-14T23:53:10.685Z,101563.69
2023-12-14T23:55:40.492Z,101566.38
2023-12-14T23:58:08.016Z,101572.72
